Time;durP1;ratioP1;P1;durP2;ratioP2;P2;SDS_P1;SDS_P2;PMS_P1;PMS_P2;Temp;Humidity;BMP_temperature;BMP_pressure;BME280_temperature;BME280_humidity;BME280_pressure;Samples;Min_cycle;Max_cycle;Signal;HPM_P1;HPM_P2
2023/06/27 00:00:20;;;;;;;5.10;2.67;;;;;;;;;;5073527;28;20204;-69
2023/06/27 00:02:46;;;;;;;5.40;2.50;;;;;;;;;;5072388;28;20194;-69
2023/06/27 00:05:12;;;;;;;5.93;2.63;;;;;;;;;;5073322;28;20174;-69
2023/06/27 00:07:41;;;;;;;3.50;2.50;;;;;;;;;;5073783;28;20613;-69
2023/06/27 00:10:08;;;;;;;3.50;2.33;;;;;;;;;;5072400;28;20190;-69
2023/06/27 00:12:35;;;;;;;9.17;2.77;;;;;;;;;;5072260;28;20194;-69
2023/06/27 00:15:01;;;;;;;6.03;2.47;;;;;;;;;;5072218;28;20185;-69
2023/06/27 00:17:27;;;;;;;6.17;2.60;;;;;;;;;;5073806;28;20174;-69
2023/06/27 00:19:58;;;;;;;4.37;2.70;;;;;;;;;;5073558;28;20671;-69
2023/06/27 00:22:24;;;;;;;5.37;2.70;;;;;;;;;;5073370;28;20726;-69
2023/06/27 00:24:50;;;;;;;8.87;2.87;;;;;;;;;;5073746;28;20173;-69
2023/06/27 00:27:16;;;;;;;7.30;2.67;;;;;;;;;;5072115;28;20186;-73
2023/06/27 00:29:42;;;;;;;3.87;2.60;;;;;;;;;;5073397;28;20184;-69
2023/06/27 00:32:08;;;;;;;7.40;2.83;;;;;;;;;;5073319;28;20198;-69
2023/06/27 00:34:34;;;;;;;3.63;2.63;;;;;;;;;;5075805;28;20266;-69
2023/06/27 00:37:00;;;;;;;3.17;2.47;;;;;;;;;;5074168;28;20182;-69
2023/06/27 00:39:26;;;;;;;5.67;3.10;;;;;;;;;;5071962;28;20691;-70
2023/06/27 00:41:54;;;;;;;6.53;2.90;;;;;;;;;;5073112;28;20193;-69
2023/06/27 00:44:20;;;;;;;4.60;2.90;;;;;;;;;;5071751;28;20181;-68
2023/06/27 00:46:48;;;;;;;5.93;3.07;;;;;;;;;;5071890;28;20547;-68
2023/06/27 00:49:16;;;;;;;3.83;2.97;;;;;;;;;;5073266;28;20261;-69
2023/06/27 00:51:42;;;;;;;4.70;3.03;;;;;;;;;;5071648;28;20292;-69
2023/06/27 00:54:09;;;;;;;10.40;3.07;;;;;;;;;;5071576;28;20678;-68
2023/06/27 00:56:35;;;;;;;5.63;3.33;;;;;;;;;;5072894;28;20268;-69
2023/06/27 00:59:02;;;;;;;3.37;3.03;;;;;;;;;;5071515;28;20213;-69
2023/06/27 01:01:31;;;;;;;6.70;3.13;;;;;;;;;;5073310;28;20190;-68
2023/06/27 01:03:57;;;;;;;6.07;2.63;;;;;;;;;;5072856;28;20174;-68
2023/06/27 01:06:29;;;;;;;6.70;3.20;;;;;;;;;;5072903;28;20652;-68
2023/06/27 01:09:03;;;;;;;7.47;2.87;;;;;;;;;;5073119;28;20565;-68
2023/06/27 01:11:33;;;;;;;6.63;3.30;;;;;;;;;;5072831;28;20314;-67
2023/06/27 01:14:00;;;;;;;4.03;3.03;;;;;;;;;;5072721;28;20193;-67
2023/06/27 01:16:29;;;;;;;6.70;2.83;;;;;;;;;;5073315;28;20636;-69
2023/06/27 01:18:57;;;;;;;6.23;3.20;;;;;;;;;;5074491;28;20201;-69
2023/06/27 01:21:24;;;;;;;4.93;3.20;;;;;;;;;;5076176;28;20206;-69
2023/06/27 01:23:50;;;;;;;10.03;3.70;;;;;;;;;;5076950;28;20246;-69
2023/06/27 01:26:16;;;;;;;9.30;3.23;;;;;;;;;;5076795;28;20606;-69
2023/06/27 01:28:42;;;;;;;4.00;3.20;;;;;;;;;;5076458;28;20174;-69
2023/06/27 01:31:11;;;;;;;5.23;3.80;;;;;;;;;;5077110;28;20277;-69
2023/06/27 01:33:46;;;;;;;5.37;3.43;;;;;;;;;;5076135;28;20310;-69
2023/06/27 01:36:17;;;;;;;6.27;4.17;;;;;;;;;;5074872;28;20183;-68
2023/06/27 01:38:49;;;;;;;5.40;3.70;;;;;;;;;;5076086;28;20246;-68
2023/06/27 01:41:17;;;;;;;8.47;3.93;;;;;;;;;;5075917;28;20202;-69
2023/06/27 01:43:44;;;;;;;7.30;4.43;;;;;;;;;;5074743;28;20600;-68
2023/06/27 01:46:11;;;;;;;5.27;4.10;;;;;;;;;;5076326;28;20222;-68
2023/06/27 01:48:38;;;;;;;5.23;4.10;;;;;;;;;;5074675;28;20640;-67
2023/06/27 01:51:07;;;;;;;5.83;4.30;;;;;;;;;;5075770;28;20194;-68
2023/06/27 01:53:34;;;;;;;6.70;4.10;;;;;;;;;;5075832;28;20197;-69
2023/06/27 01:56:00;;;;;;;10.30;4.70;;;;;;;;;;5075886;28;20551;-69
2023/06/27 01:58:26;;;;;;;12.60;4.50;;;;;;;;;;5075721;28;20170;-68
2023/06/27 02:00:52;;;;;;;10.10;4.90;;;;;;;;;;5075910;28;20285;-68
2023/06/27 02:03:17;;;;;;;6.83;4.30;;;;;;;;;;5075628;28;20196;-68
2023/06/27 02:05:43;;;;;;;7.07;3.90;;;;;;;;;;5075588;28;20182;-68
2023/06/27 02:08:09;;;;;;;7.23;4.43;;;;;;;;;;5075542;28;20209;-68
2023/06/27 02:10:35;;;;;;;7.90;4.00;;;;;;;;;;5075676;28;20188;-69
2023/06/27 02:13:03;;;;;;;5.80;4.40;;;;;;;;;;5075240;28;20197;-69
2023/06/27 02:15:29;;;;;;;6.10;4.60;;;;;;;;;;5075712;28;20182;-68
2023/06/27 02:17:55;;;;;;;6.63;4.47;;;;;;;;;;5075440;28;20178;-69
2023/06/27 02:20:21;;;;;;;6.07;4.30;;;;;;;;;;5075453;28;20240;-69
2023/06/27 02:22:47;;;;;;;5.23;4.30;;;;;;;;;;5075180;28;20213;-69
2023/06/27 02:25:13;;;;;;;11.70;5.00;;;;;;;;;;5075337;28;20185;-68
2023/06/27 02:27:39;;;;;;;9.63;4.40;;;;;;;;;;5075381;28;20173;-69
2023/06/27 02:30:05;;;;;;;8.97;4.30;;;;;;;;;;5075169;28;20177;-68
2023/06/27 02:32:31;;;;;;;4.57;4.10;;;;;;;;;;5074952;28;20371;-68
2023/06/27 02:34:57;;;;;;;5.63;3.90;;;;;;;;;;5075171;28;20261;-69
2023/06/27 02:37:23;;;;;;;9.43;4.37;;;;;;;;;;5075101;28;20184;-69
2023/06/27 02:39:50;;;;;;;11.60;4.87;;;;;;;;;;5074869;28;20260;-68
2023/06/27 02:42:16;;;;;;;6.37;4.63;;;;;;;;;;5073783;28;20197;-68
2023/06/27 02:44:42;;;;;;;8.03;4.70;;;;;;;;;;5075081;28;20227;-69
2023/06/27 02:47:08;;;;;;;10.50;4.50;;;;;;;;;;5073876;28;20228;-68
2023/06/27 02:49:34;;;;;;;9.70;4.47;;;;;;;;;;5074977;28;20186;-68
2023/06/27 02:52:00;;;;;;;13.17;4.80;;;;;;;;;;5074808;28;20259;-68
2023/06/27 02:54:25;;;;;;;4.80;4.00;;;;;;;;;;5073423;28;20197;-68
2023/06/27 02:56:51;;;;;;;7.27;4.57;;;;;;;;;;5075171;28;20230;-69
2023/06/27 02:59:17;;;;;;;8.73;4.30;;;;;;;;;;5073201;28;20698;-69
2023/06/27 03:01:43;;;;;;;5.80;4.50;;;;;;;;;;5074766;28;20206;-68
2023/06/27 03:04:10;;;;;;;9.53;4.50;;;;;;;;;;5073213;28;20647;-69
2023/06/27 03:06:36;;;;;;;10.67;4.97;;;;;;;;;;5074418;28;20260;-69
2023/06/27 03:09:02;;;;;;;8.93;4.30;;;;;;;;;;5074404;28;20267;-68
2023/06/27 03:11:28;;;;;;;5.17;3.83;;;;;;;;;;5074639;28;20202;-68
2023/06/27 03:13:54;;;;;;;7.03;5.07;;;;;;;;;;5074659;28;20181;-68
2023/06/27 03:16:20;;;;;;;6.00;4.37;;;;;;;;;;5073036;28;20205;-68
2023/06/27 03:18:46;;;;;;;8.03;4.20;;;;;;;;;;5074126;28;20299;-69
2023/06/27 03:21:12;;;;;;;8.63;4.73;;;;;;;;;;5074082;28;20209;-68
2023/06/27 03:23:38;;;;;;;7.53;4.17;;;;;;;;;;5072924;28;20228;-68
2023/06/27 03:26:04;;;;;;;7.07;4.63;;;;;;;;;;5074115;28;20178;-68
2023/06/27 03:28:30;;;;;;;8.23;4.93;;;;;;;;;;5071683;28;20380;-68
2023/06/27 03:30:56;;;;;;;7.90;4.53;;;;;;;;;;5072734;28;20209;-69
2023/06/27 03:33:22;;;;;;;10.18;5.03;;;;;;;;;;5073246;28;20379;-68
2023/06/27 03:35:47;;;;;;;9.57;5.13;;;;;;;;;;5073616;28;20383;-68
2023/06/27 03:38:14;;;;;;;9.25;5.10;;;;;;;;;;5071674;28;20738;-69
2023/06/27 03:40:40;;;;;;;10.45;4.93;;;;;;;;;;5071876;28;20406;-69
2023/06/27 03:43:06;;;;;;;10.13;5.20;;;;;;;;;;5072684;28;20460;-69
2023/06/27 03:45:32;;;;;;;7.82;4.57;;;;;;;;;;5072558;28;20415;-68
2023/06/27 03:47:58;;;;;;;7.75;4.95;;;;;;;;;;5071263;28;20734;-69
2023/06/27 03:50:25;;;;;;;9.77;4.90;;;;;;;;;;5072362;28;20586;-69
2023/06/27 03:52:51;;;;;;;9.80;4.67;;;;;;;;;;5074070;28;20291;-69
2023/06/27 03:55:21;;;;;;;7.23;4.60;;;;;;;;;;5072495;28;20628;-68
2023/06/27 03:57:48;;;;;;;8.73;4.50;;;;;;;;;;5072477;28;20185;-69
2023/06/27 04:00:14;;;;;;;6.70;4.00;;;;;;;;;;5072388;28;20201;-69
2023/06/27 04:02:40;;;;;;;8.60;4.37;;;;;;;;;;5073522;28;20630;-68
2023/06/27 04:05:06;;;;;;;5.40;4.10;;;;;;;;;;5073682;28;20189;-69
2023/06/27 04:07:32;;;;;;;11.77;4.70;;;;;;;;;;5073739;28;20173;-69
2023/06/27 04:09:58;;;;;;;9.60;4.73;;;;;;;;;;5073794;28;20184;-69
2023/06/27 04:12:24;;;;;;;6.87;4.57;;;;;;;;;;5072327;28;20719;-69
2023/06/27 04:14:50;;;;;;;10.00;4.50;;;;;;;;;;5073318;28;20216;-69
2023/06/27 04:17:17;;;;;;;6.40;4.43;;;;;;;;;;5072523;28;20292;-69
2023/06/27 04:19:43;;;;;;;14.07;4.60;;;;;;;;;;5073470;28;20284;-69
2023/06/27 04:22:09;;;;;;;8.30;5.10;;;;;;;;;;5073139;28;20220;-69
2023/06/27 04:24:35;;;;;;;7.83;4.47;;;;;;;;;;5073566;28;20174;-69
2023/06/27 04:27:01;;;;;;;8.90;4.73;;;;;;;;;;5073302;28;20612;-69
2023/06/27 04:29:27;;;;;;;8.10;4.40;;;;;;;;;;5072117;28;20177;-69
2023/06/27 04:31:53;;;;;;;10.40;4.37;;;;;;;;;;5073261;28;20241;-69
2023/06/27 04:34:19;;;;;;;9.93;4.47;;;;;;;;;;5071987;28;20181;-69
2023/06/27 04:36:45;;;;;;;9.67;4.53;;;;;;;;;;5073270;28;20177;-69
2023/06/27 04:39:11;;;;;;;10.63;4.33;;;;;;;;;;5073227;28;20212;-69
2023/06/27 04:41:37;;;;;;;9.43;4.80;;;;;;;;;;5073660;28;20679;-69
2023/06/27 04:44:03;;;;;;;9.03;4.77;;;;;;;;;;5073691;28;20184;-69
2023/06/27 04:46:29;;;;;;;10.33;4.37;;;;;;;;;;5073420;28;20174;-69
2023/06/27 04:48:59;;;;;;;13.70;4.50;;;;;;;;;;5073235;28;20223;-68
2023/06/27 04:51:28;;;;;;;9.07;4.50;;;;;;;;;;5073843;28;20679;-69
2023/06/27 04:53:54;;;;;;;8.60;4.73;;;;;;;;;;5077267;28;20173;-69
2023/06/27 04:56:21;;;;;;;11.20;4.53;;;;;;;;;;5077282;28;20181;-69
2023/06/27 04:58:46;;;;;;;9.47;4.43;;;;;;;;;;5077438;28;20178;-69
2023/06/27 05:01:12;;;;;;;8.40;4.53;;;;;;;;;;5077014;28;20749;-69
2023/06/27 05:03:39;;;;;;;8.17;4.00;;;;;;;;;;5076939;28;20662;-69
2023/06/27 05:06:05;;;;;;;8.50;4.43;;;;;;;;;;5077276;28;20182;-69
2023/06/27 05:08:31;;;;;;;11.07;4.47;;;;;;;;;;5077449;28;20539;-69
2023/06/27 05:10:57;;;;;;;12.17;4.93;;;;;;;;;;5077054;28;20186;-69
2023/06/27 05:13:23;;;;;;;8.63;4.37;;;;;;;;;;5076945;28;20264;-70
2023/06/27 05:15:49;;;;;;;11.50;4.70;;;;;;;;;;5076908;28;20186;-69
2023/06/27 05:18:15;;;;;;;9.40;4.23;;;;;;;;;;5075522;28;20177;-69
2023/06/27 05:20:41;;;;;;;13.33;4.53;;;;;;;;;;5076653;28;20231;-69
2023/06/27 05:23:07;;;;;;;11.00;4.13;;;;;;;;;;5076515;28;20221;-69
2023/06/27 05:25:33;;;;;;;9.63;4.27;;;;;;;;;;5076942;28;20174;-68
2023/06/27 05:28:00;;;;;;;12.13;4.47;;;;;;;;;;5076509;28;20177;-69
2023/06/27 05:30:26;;;;;;;10.97;4.23;;;;;;;;;;5076646;28;20177;-69
2023/06/27 05:32:52;;;;;;;11.53;4.63;;;;;;;;;;5076299;28;20247;-69
2023/06/27 05:35:18;;;;;;;12.97;4.20;;;;;;;;;;5074967;28;20185;-68
2023/06/27 05:37:44;;;;;;;9.67;3.87;;;;;;;;;;5076569;28;20239;-68
2023/06/27 05:40:11;;;;;;;12.10;4.67;;;;;;;;;;5076232;28;20613;-69
2023/06/27 05:42:37;;;;;;;11.87;4.40;;;;;;;;;;5076292;28;20194;-69
2023/06/27 05:45:03;;;;;;;13.93;4.50;;;;;;;;;;5076337;28;20178;-69
2023/06/27 05:47:29;;;;;;;9.50;4.13;;;;;;;;;;5076748;28;20640;-69
2023/06/27 05:49:55;;;;;;;10.87;4.63;;;;;;;;;;5076505;28;20184;-69
2023/06/27 05:52:21;;;;;;;9.33;4.90;;;;;;;;;;5074935;28;20751;-69
2023/06/27 05:54:48;;;;;;;12.50;4.57;;;;;;;;;;5076273;28;20177;-69
2023/06/27 05:57:14;;;;;;;16.57;6.47;;;;;;;;;;5076454;28;20598;-69
2023/06/27 05:59:40;;;;;;;17.93;5.73;;;;;;;;;;5075938;28;20218;-69
2023/06/27 06:02:06;;;;;;;15.60;8.10;;;;;;;;;;5076234;28;20202;-69
2023/06/27 06:04:32;;;;;;;8.90;4.60;;;;;;;;;;5074115;28;20174;-69
2023/06/27 06:06:58;;;;;;;12.37;5.00;;;;;;;;;;5076293;28;20170;-69
2023/06/27 06:09:24;;;;;;;13.03;4.87;;;;;;;;;;5076124;28;20208;-70
2023/06/27 06:11:50;;;;;;;13.20;4.90;;;;;;;;;;5074525;28;20198;-69
2023/06/27 06:14:16;;;;;;;9.03;5.23;;;;;;;;;;5075943;28;20189;-68
2023/06/27 06:16:42;;;;;;;10.73;5.90;;;;;;;;;;5074665;28;20189;-68
2023/06/27 06:19:08;;;;;;;17.27;6.47;;;;;;;;;;5075781;28;20233;-68
2023/06/27 06:21:36;;;;;;;11.20;5.50;;;;;;;;;;5075686;28;20214;-68
2023/06/27 06:24:02;;;;;;;16.63;6.13;;;;;;;;;;5075609;28;20181;-69
2023/06/27 06:26:28;;;;;;;13.60;6.07;;;;;;;;;;5075954;28;20182;-69
2023/06/27 06:28:54;;;;;;;15.20;6.87;;;;;;;;;;5075781;28;20170;-69
2023/06/27 06:31:21;;;;;;;13.27;5.83;;;;;;;;;;5074265;28;20201;-69
2023/06/27 06:33:48;;;;;;;11.90;5.43;;;;;;;;;;5074166;28;20177;-69
2023/06/27 06:36:14;;;;;;;12.17;5.43;;;;;;;;;;5074278;28;20189;-69
2023/06/27 06:38:40;;;;;;;13.80;5.50;;;;;;;;;;5075161;28;20559;-69
2023/06/27 06:41:06;;;;;;;13.67;5.60;;;;;;;;;;5075408;28;20220;-69
2023/06/27 06:43:32;;;;;;;10.73;5.60;;;;;;;;;;5076253;28;20174;-69
2023/06/27 06:45:59;;;;;;;15.00;6.07;;;;;;;;;;5076370;28;20181;-69
2023/06/27 06:48:25;;;;;;;14.90;5.57;;;;;;;;;;5075982;28;20174;-69
2023/06/27 06:50:51;;;;;;;15.63;6.03;;;;;;;;;;5075035;28;20204;-69
2023/06/27 06:53:18;;;;;;;14.40;5.23;;;;;;;;;;5075510;28;20588;-68
2023/06/27 06:55:44;;;;;;;14.13;5.73;;;;;;;;;;5075117;28;20189;-69
2023/06/27 06:58:10;;;;;;;12.57;6.00;;;;;;;;;;5073679;28;20190;-69
2023/06/27 07:00:36;;;;;;;11.37;4.93;;;;;;;;;;5075370;28;20280;-69
2023/06/27 07:03:03;;;;;;;12.73;5.03;;;;;;;;;;5074772;28;20193;-69
2023/06/27 07:05:29;;;;;;;19.67;5.60;;;;;;;;;;5073646;28;20417;-69
2023/06/27 07:07:55;;;;;;;15.13;5.97;;;;;;;;;;5075141;28;20170;-69
2023/06/27 07:10:21;;;;;;;15.43;5.33;;;;;;;;;;5075468;28;20257;-69
2023/06/27 07:12:47;;;;;;;13.77;5.63;;;;;;;;;;5074955;28;20611;-69
2023/06/27 07:15:15;;;;;;;17.23;5.60;;;;;;;;;;5073915;28;20555;-69
2023/06/27 07:17:41;;;;;;;17.87;5.97;;;;;;;;;;5073579;28;20273;-69
2023/06/27 07:20:08;;;;;;;18.13;6.50;;;;;;;;;;5074632;28;20270;-70
2023/06/27 07:22:34;;;;;;;12.10;5.70;;;;;;;;;;5074482;28;20622;-69
2023/06/27 07:25:01;;;;;;;15.30;6.50;;;;;;;;;;5075233;28;20205;-69
2023/06/27 07:27:26;;;;;;;16.13;6.17;;;;;;;;;;5073506;28;20214;-69
2023/06/27 07:29:52;;;;;;;17.33;6.33;;;;;;;;;;5074720;28;20559;-69
2023/06/27 07:32:18;;;;;;;12.93;5.83;;;;;;;;;;5074774;28;20216;-68
2023/06/27 07:34:44;;;;;;;19.77;6.27;;;;;;;;;;5074741;28;20534;-69
2023/06/27 07:37:17;;;;;;;11.73;5.23;;;;;;;;;;5072013;28;20577;-69
2023/06/27 07:39:43;;;;;;;18.83;5.80;;;;;;;;;;5069870;28;20534;-69
2023/06/27 07:42:09;;;;;;;17.70;6.07;;;;;;;;;;5069580;28;20212;-68
2023/06/27 07:44:35;;;;;;;15.83;5.87;;;;;;;;;;5071030;28;20639;-69
2023/06/27 07:47:01;;;;;;;14.03;5.30;;;;;;;;;;5069742;28;20674;-69
2023/06/27 07:49:27;;;;;;;15.87;5.47;;;;;;;;;;5071024;28;20197;-69
2023/06/27 07:51:53;;;;;;;13.63;5.03;;;;;;;;;;5070627;28;20193;-69
2023/06/27 07:54:21;;;;;;;13.63;5.83;;;;;;;;;;5069522;28;20192;-69
2023/06/27 07:56:49;;;;;;;13.17;5.40;;;;;;;;;;5069163;28;20292;-69
2023/06/27 07:59:16;;;;;;;14.33;5.57;;;;;;;;;;5069384;28;20559;-69
2023/06/27 08:01:43;;;;;;;16.63;6.05;;;;;;;;;;5068089;28;20874;-69
2023/06/27 08:04:09;;;;;;;16.25;5.82;;;;;;;;;;5068012;28;20740;-70
2023/06/27 08:06:35;;;;;;;14.38;5.80;;;;;;;;;;5069174;28;20426;-69
2023/06/27 08:09:01;;;;;;;17.88;5.93;;;;;;;;;;5068099;28;20857;-69
2023/06/27 08:11:27;;;;;;;16.13;5.45;;;;;;;;;;5067846;28;20782;-70
2023/06/27 08:13:53;;;;;;;14.33;5.13;;;;;;;;;;5069416;28;20431;-69
2023/06/27 08:16:19;;;;;;;15.17;5.30;;;;;;;;;;5069382;28;20412;-69
2023/06/27 08:18:45;;;;;;;14.30;5.18;;;;;;;;;;5068960;28;20829;-70
2023/06/27 08:21:11;;;;;;;12.90;5.13;;;;;;;;;;5069304;28;20381;-70
2023/06/27 08:23:37;;;;;;;14.93;4.97;;;;;;;;;;5067615;28;20369;-69
2023/06/27 08:26:03;;;;;;;11.77;4.55;;;;;;;;;;5069431;28;20863;-70
2023/06/27 08:28:29;;;;;;;14.40;4.70;;;;;;;;;;5070010;28;20866;-69
2023/06/27 08:30:55;;;;;;;14.20;4.80;;;;;;;;;;5068358;28;20388;-69
2023/06/27 08:33:21;;;;;;;13.00;4.70;;;;;;;;;;5068886;28;20380;-69
2023/06/27 08:35:47;;;;;;;18.92;5.28;;;;;;;;;;5067555;28;20412;-70
2023/06/27 08:38:13;;;;;;;17.77;5.13;;;;;;;;;;5068790;28;20377;-69
2023/06/27 08:40:41;;;;;;;15.55;5.15;;;;;;;;;;5069088;28;20369;-70
2023/06/27 08:43:07;;;;;;;13.83;5.30;;;;;;;;;;5068924;28;20955;-69
2023/06/27 08:45:36;;;;;;;15.43;5.00;;;;;;;;;;5068573;28;20384;-70
2023/06/27 08:48:03;;;;;;;14.38;4.43;;;;;;;;;;5057359;28;20403;-69
2023/06/27 08:50:29;;;;;;;11.02;4.45;;;;;;;;;;5055097;28;20385;-69
2023/06/27 08:52:56;;;;;;;9.40;4.10;;;;;;;;;;5053785;28;20904;-69
2023/06/27 08:55:28;;;;;;;11.73;4.07;;;;;;;;;;5055351;28;20428;-69
2023/06/27 08:57:56;;;;;;;10.07;4.45;;;;;;;;;;5055244;28;20378;-69
2023/06/27 09:00:26;;;;;;;10.73;4.30;;;;;;;;;;5054801;28;20405;-69
2023/06/27 09:02:52;;;;;;;10.88;4.10;;;;;;;;;;5053332;28;20373;-70
2023/06/27 09:05:19;;;;;;;13.30;4.30;;;;;;;;;;5054713;28;20393;-69
2023/06/27 09:07:45;;;;;;;10.80;4.03;;;;;;;;;;5053547;28;20435;-70
2023/06/27 09:10:11;;;;;;;8.52;3.30;;;;;;;;;;5054798;28;20386;-69
2023/06/27 09:12:39;;;;;;;11.23;3.10;;;;;;;;;;5054656;28;20408;-69
2023/06/27 09:15:05;;;;;;;7.70;3.33;;;;;;;;;;5053214;28;20394;-69
2023/06/27 09:17:32;;;;;;;9.00;3.10;;;;;;;;;;5053542;28;20389;-69
2023/06/27 09:19:57;;;;;;;7.13;3.15;;;;;;;;;;5053446;28;20384;-69
2023/06/27 09:22:24;;;;;;;7.70;3.15;;;;;;;;;;5054925;28;20382;-69
2023/06/27 09:24:50;;;;;;;8.68;3.22;;;;;;;;;;5053286;28;20397;-69
2023/06/27 09:27:31;;;;;;;10.93;3.70;;;;;;;;;;5054599;28;20393;-69
2023/06/27 09:30:03;;;;;;;8.25;3.15;;;;;;;;;;5054691;28;20377;-69
2023/06/27 09:32:30;;;;;;;9.00;3.33;;;;;;;;;;5053549;28;20442;-69
2023/06/27 09:34:56;;;;;;;10.07;3.33;;;;;;;;;;5054313;28;20392;-69
2023/06/27 09:37:28;;;;;;;7.00;3.65;;;;;;;;;;5054645;28;20392;-69
2023/06/27 09:39:55;;;;;;;9.77;3.40;;;;;;;;;;5053679;28;20472;-70
2023/06/27 09:42:21;;;;;;;5.93;2.97;;;;;;;;;;5052915;28;20443;-69
2023/06/27 09:44:46;;;;;;;8.55;3.10;;;;;;;;;;5052730;28;20459;-69
2023/06/27 09:47:13;;;;;;;8.55;3.47;;;;;;;;;;5053919;28;20393;-69
2023/06/27 09:49:41;;;;;;;11.17;3.90;;;;;;;;;;5052950;28;20419;-69
2023/06/27 09:52:08;;;;;;;10.23;3.70;;;;;;;;;;5054188;28;20784;-69
2023/06/27 09:54:41;;;;;;;8.27;3.50;;;;;;;;;;5052422;28;20762;-70
2023/06/27 09:57:12;;;;;;;7.68;3.40;;;;;;;;;;5061816;22;20509;-65
2023/06/27 09:59:38;;;;;;;11.43;3.55;;;;;;;;;;5033434;28;20756;-65
2023/06/27 10:02:04;;;;;;;8.18;3.30;;;;;;;;;;5032510;28;20387;-66
2023/06/27 10:04:31;;;;;;;10.07;3.30;;;;;;;;;;5034250;28;20433;-65
2023/06/27 10:06:57;;;;;;;9.60;3.25;;;;;;;;;;5033803;28;20384;-66
2023/06/27 10:09:23;;;;;;;9.10;3.65;;;;;;;;;;5034690;28;20375;-65
2023/06/27 10:11:49;;;;;;;7.35;3.83;;;;;;;;;;5032275;28;20394;-66
2023/06/27 10:14:15;;;;;;;8.43;3.38;;;;;;;;;;5033286;28;20438;-65
2023/06/27 10:16:42;;;;;;;7.20;3.93;;;;;;;;;;5033053;28;20313;-66
2023/06/27 10:19:08;;;;;;;10.87;3.40;;;;;;;;;;5034492;28;20182;-65
2023/06/27 10:21:34;;;;;;;7.63;3.70;;;;;;;;;;5033535;28;20407;-65
2023/06/27 10:24:01;;;;;;;9.50;3.20;;;;;;;;;;5031865;28;20384;-65
2023/06/27 10:26:27;;;;;;;7.67;3.40;;;;;;;;;;5034100;28;20214;-65
2023/06/27 10:28:54;;;;;;;5.60;2.87;;;;;;;;;;5032740;28;20221;-66
2023/06/27 10:31:45;;;;;;;5.50;3.10;;;;;;;;;;5032895;28;20185;-66
2023/06/27 10:34:17;;;;;;;4.70;2.40;;;;;;;;;;5032763;28;20259;-66
2023/06/27 10:37:16;;;;;;;7.57;2.97;;;;;;;;;;5033721;28;20211;-68
2023/06/27 10:39:55;;;;;;;7.90;2.77;;;;;;;;;;5032187;28;20190;-65
2023/06/27 10:42:20;;;;;;;6.50;2.80;;;;;;;;;;5033978;28;20159;-65
2023/06/27 10:45:00;;;;;;;8.67;3.13;;;;;;;;;;5034190;28;20181;-65
2023/06/27 10:47:33;;;;;;;4.37;2.97;;;;;;;;;;5033933;28;20225;-65
2023/06/27 10:50:05;;;;;;;8.77;3.37;;;;;;;;;;5033818;28;20163;-66
2023/06/27 10:52:31;;;;;;;8.13;3.37;;;;;;;;;;5033655;28;20182;-65
2023/06/27 10:55:15;;;;;;;5.57;2.80;;;;;;;;;;5033483;28;20179;-66
2023/06/27 10:57:44;;;;;;;6.20;2.60;;;;;;;;;;5033358;28;20293;-66
2023/06/27 11:00:16;;;;;;;7.60;2.87;;;;;;;;;;5033545;28;20175;-65
2023/06/27 11:02:42;;;;;;;11.77;3.10;;;;;;;;;;5033556;28;20210;-67
2023/06/27 11:05:16;;;;;;;8.37;3.23;;;;;;;;;;5032218;28;20217;-66
2023/06/27 11:07:52;;;;;;;7.97;2.90;;;;;;;;;;5032154;28;20199;-66
2023/06/27 11:10:23;;;;;;;4.37;2.80;;;;;;;;;;5033547;28;20179;-66
2023/06/27 11:12:49;;;;;;;4.83;2.67;;;;;;;;;;5033511;28;20183;-66
2023/06/27 11:15:17;;;;;;;4.23;2.40;;;;;;;;;;5032078;28;20186;-66
2023/06/27 11:17:45;;;;;;;6.83;2.50;;;;;;;;;;5032215;28;20684;-65
2023/06/27 11:20:12;;;;;;;13.97;2.93;;;;;;;;;;5032029;28;20676;-65
2023/06/27 11:22:38;;;;;;;5.67;2.07;;;;;;;;;;5033144;28;20186;-65
2023/06/27 11:25:14;;;;;;;4.30;2.07;;;;;;;;;;5033584;28;20232;-65
2023/06/27 11:27:40;;;;;;;8.23;2.30;;;;;;;;;;5033234;28;20258;-64
2023/06/27 11:30:07;;;;;;;4.47;2.13;;;;;;;;;;5033261;28;20649;-65
2023/06/27 11:32:33;;;;;;;8.30;2.43;;;;;;;;;;5032004;28;20206;-65
2023/06/27 11:34:59;;;;;;;6.63;2.13;;;;;;;;;;5033184;28;20171;-65
2023/06/27 11:37:26;;;;;;;5.50;2.20;;;;;;;;;;5033018;28;20199;-65
2023/06/27 11:39:53;;;;;;;3.40;1.87;;;;;;;;;;5031724;28;20198;-65
2023/06/27 11:42:31;;;;;;;3.53;2.33;;;;;;;;;;5031675;28;20274;-64
2023/06/27 11:44:57;;;;;;;6.13;2.40;;;;;;;;;;5033200;28;20163;-65
2023/06/27 11:47:23;;;;;;;7.00;2.50;;;;;;;;;;5032859;28;20209;-66
2023/06/27 11:49:49;;;;;;;3.87;2.10;;;;;;;;;;5033060;28;20179;-65
2023/06/27 11:52:15;;;;;;;5.83;2.40;;;;;;;;;;5032942;28;20229;-65
2023/06/27 11:54:49;;;;;;;7.53;2.33;;;;;;;;;;5031870;28;20270;-65
2023/06/27 11:57:17;;;;;;;6.77;2.60;;;;;;;;;;5031963;28;20719;-65
2023/06/27 11:59:43;;;;;;;7.43;2.97;;;;;;;;;;5033374;28;20171;-66
2023/06/27 12:02:10;;;;;;;6.27;2.60;;;;;;;;;;5034157;28;20179;-66
2023/06/27 12:04:36;;;;;;;6.77;2.30;;;;;;;;;;5033462;28;20535;-65
2023/06/27 12:07:20;;;;;;;4.47;2.30;;;;;;;;;;5034984;28;20269;-67
2023/06/27 12:09:46;;;;;;;3.90;2.17;;;;;;;;;;5034650;28;20163;-67
2023/06/27 12:12:12;;;;;;;6.70;2.50;;;;;;;;;;5035379;28;20244;-67
2023/06/27 12:14:38;;;;;;;6.77;2.40;;;;;;;;;;5034142;28;20191;-66
2023/06/27 12:17:04;;;;;;;5.47;2.40;;;;;;;;;;5032963;28;20253;-67
2023/06/27 12:19:30;;;;;;;8.70;2.53;;;;;;;;;;5034048;28;20227;-67
2023/06/27 12:21:58;;;;;;;4.50;2.80;;;;;;;;;;5033860;28;20554;-67
2023/06/27 12:24:24;;;;;;;8.83;2.03;;;;;;;;;;5036380;28;20210;-67
2023/06/27 12:26:50;;;;;;;4.20;2.30;;;;;;;;;;5037284;28;20220;-67
2023/06/27 12:29:16;;;;;;;4.33;2.07;;;;;;;;;;5039169;28;20179;-66
2023/06/27 12:31:42;;;;;;;4.80;2.33;;;;;;;;;;5037860;28;20262;-67
2023/06/27 12:34:08;;;;;;;6.00;2.43;;;;;;;;;;5037304;28;20206;-67
2023/06/27 12:36:34;;;;;;;6.13;2.50;;;;;;;;;;5036094;28;20211;-67
2023/06/27 12:39:00;;;;;;;6.97;2.77;;;;;;;;;;5037191;28;20175;-66
2023/06/27 12:41:28;;;;;;;4.30;2.57;;;;;;;;;;5037874;28;20190;-66
2023/06/27 12:43:54;;;;;;;7.13;2.40;;;;;;;;;;5035989;28;20184;-66
2023/06/27 12:46:21;;;;;;;6.33;2.20;;;;;;;;;;5037177;28;20252;-66
2023/06/27 12:48:47;;;;;;;;;;;;;;;;;;5037483;28;20029;-66
2023/06/27 12:51:13;;;;;;;;;;;;;;;;;;5036886;28;19999;-72
2023/06/27 12:53:39;;;;;;;;;;;;;;;;;;5038925;28;19905;-65
2023/06/27 12:56:05;;;;;;;;;;;;;;;;;;5040674;28;19927;-64
2023/06/27 12:58:31;;;;;;;;;;;;;;;;;;5039115;28;19911;-65
2023/06/27 13:00:59;;;;;;;;;;;;;;;;;;5037878;28;19912;-67
2023/06/27 13:03:25;;;;;;;;;;;;;;;;;;5040775;28;20321;-66
2023/06/27 13:05:51;;;;;;;;;;;;;;;;;;5041841;28;19976;-68
2023/06/27 13:08:17;;;;;;;;;;;;;;;;;;5041418;28;19928;-66
2023/06/27 13:10:43;;;;;;;;;;;;;;;;;;5038891;28;19905;-66
2023/06/27 13:13:09;;;;;;;;;;;;;;;;;;5040718;28;19905;-67
2023/06/27 13:15:35;;;;;;;;;;;;;;;;;;5040335;28;19919;-66
2023/06/27 13:18:01;;;;;;;;;;;;;;;;;;5038229;28;19905;-66
2023/06/27 13:20:27;;;;;;;;;;;;;;;;;;5040206;28;20391;-66
2023/06/27 13:22:53;;;;;;;;;;;;;;;;;;5041530;28;19948;-66
2023/06/27 13:25:20;;;;;;;;;;;;;;;;;;5038427;28;19966;-66
2023/06/27 13:27:46;;;;;;;;;;;;;;;;;;5037439;28;19909;-67
2023/06/27 13:30:12;;;;;;;;;;;;;;;;;;5038810;28;19908;-66
2023/06/27 13:32:38;;;;;;;;;;;;;;;;;;5037623;28;20044;-68
2023/06/27 13:35:03;;;;;;;;;;;;;;;;;;5035216;28;19901;-67
2023/06/27 13:37:29;;;;;;;;;;;;;;;;;;5038125;28;19970;-66
2023/06/27 13:39:55;;;;;;;;;;;;;;;;;;5037283;28;19928;-68
2023/06/27 13:42:21;;;;;;;;;;;;;;;;;;5035370;28;19905;-66
2023/06/27 13:44:47;;;;;;;;;;;;;;;;;;5035493;28;19905;-66
2023/06/27 13:47:13;;;;;;;;;;;;;;;;;;5035824;28;19912;-66
2023/06/27 13:49:39;;;;;;;;;;;;;;;;;;5035163;28;19905;-66
2023/06/27 13:52:05;;;;;;;;;;;;;;;;;;5035201;28;19909;-66
2023/06/27 13:54:31;;;;;;;;;;;;;;;;;;5036604;28;20031;-67
2023/06/27 13:56:57;;;;;;;;;;;;;;;;;;5035853;28;19913;-66
2023/06/27 13:59:23;;;;;;;;;;;;;;;;;;5036220;28;19905;-66
2023/06/27 14:01:49;;;;;;;;;;;;;;;;;;5034711;28;19905;-66
2023/06/27 14:04:15;;;;;;;;;;;;;;;;;;5035792;28;19909;-67
2023/06/27 14:06:40;;;;;;;;;;;;;;;;;;5035637;28;19944;-67
2023/06/27 14:09:08;;;;;;;;;;;;;;;;;;5035831;28;19963;-66
2023/06/27 14:11:34;;;;;;;;;;;;;;;;;;5036653;28;19959;-68
2023/06/27 14:14:00;;;;;;;;;;;;;;;;;;5034549;28;19905;-66
2023/06/27 14:16:26;;;;;;;;;;;;;;;;;;5035611;28;20354;-67
2023/06/27 14:18:53;;;;;;;;;;;;;;;;;;5035272;28;19905;-67
2023/06/27 14:21:21;;;;;;;;;;;;;;;;;;5035586;28;19928;-67
2023/06/27 14:23:48;;;;;;;;;;;;;;;;;;5035335;28;19912;-66
2023/06/27 14:26:14;;;;;;;;;;;;;;;;;;5035689;28;20274;-66
2023/06/27 14:28:40;;;;;;;;;;;;;;;;;;5035274;28;19905;-67
2023/06/27 14:31:06;;;;;;;;;;;;;;;;;;5035217;28;19916;-67
2023/06/27 14:33:32;;;;;;;;;;;;;;;;;;5036257;28;20050;-67
2023/06/27 14:35:58;;;;;;;;;;;;;;;;;;5034158;28;19908;-67
2023/06/27 14:38:24;;;;;;;;;;;;;;;;;;5034242;28;19909;-66
2023/06/27 14:40:50;;;;;;;;;;;;;;;;;;5033675;28;20367;-67
2023/06/27 14:43:15;;;;;;;;;;;;;;;;;;5035026;28;19909;-66
2023/06/27 14:45:41;;;;;;;;;;;;;;;;;;5033654;28;20343;-66
2023/06/27 14:48:07;;;;;;;;;;;;;;;;;;5034410;28;19912;-67
2023/06/27 14:50:35;;;;;;;;;;;;;;;;;;5036010;28;20450;-66